sensor_id;sensor_type;location;lat;lon;timestamp;P1;durP1;ratioP1;P2;durP2;ratioP2
43771;SDS011;59066;54.782;32.024;2023-02-21T00:02:25;11.10;;;5.95;;
43771;SDS011;59066;54.782;32.024;2023-02-21T00:05:10;11.98;;;6.25;;
43771;SDS011;59066;54.782;32.024;2023-02-21T00:07:56;8.27;;;5.50;;
43771;SDS011;59066;54.782;32.024;2023-02-21T00:10:42;10.75;;;5.80;;
43771;SDS011;59066;54.782;32.024;2023-02-21T00:13:28;8.25;;;4.85;;
43771;SDS011;59066;54.782;32.024;2023-02-21T00:16:17;7.82;;;4.50;;
43771;SDS011;59066;54.782;32.024;2023-02-21T00:19:03;8.90;;;4.70;;
43771;SDS011;59066;54.782;32.024;2023-02-21T00:21:49;8.50;;;5.25;;
43771;SDS011;59066;54.782;32.024;2023-02-21T00:24:35;8.88;;;5.13;;
43771;SDS011;59066;54.782;32.024;2023-02-21T00:27:23;8.45;;;4.95;;
43771;SDS011;59066;54.782;32.024;2023-02-21T00:30:10;9.35;;;5.10;;
43771;SDS011;59066;54.782;32.024;2023-02-21T00:32:57;6.55;;;4.40;;
43771;SDS011;59066;54.782;32.024;2023-02-21T00:35:43;9.40;;;4.05;;
43771;SDS011;59066;54.782;32.024;2023-02-21T00:38:29;8.23;;;4.88;;
43771;SDS011;59066;54.782;32.024;2023-02-21T00:41:15;9.60;;;4.65;;
43771;SDS011;59066;54.782;32.024;2023-02-21T00:44:01;7.05;;;4.10;;
43771;SDS011;59066;54.782;32.024;2023-02-21T00:46:46;7.65;;;4.40;;
43771;SDS011;59066;54.782;32.024;2023-02-21T00:49:32;8.53;;;4.90;;
43771;SDS011;59066;54.782;32.024;2023-02-21T00:52:18;8.90;;;4.50;;
43771;SDS011;59066;54.782;32.024;2023-02-21T00:55:04;7.32;;;3.95;;
43771;SDS011;59066;54.782;32.024;2023-02-21T00:57:50;8.35;;;4.13;;
43771;SDS011;59066;54.782;32.024;2023-02-21T01:00:36;8.43;;;4.78;;
43771;SDS011;59066;54.782;32.024;2023-02-21T01:03:22;7.90;;;5.25;;
43771;SDS011;59066;54.782;32.024;2023-02-21T01:06:09;8.77;;;4.78;;
43771;SDS011;59066;54.782;32.024;2023-02-21T01:08:56;7.15;;;4.22;;
43771;SDS011;59066;54.782;32.024;2023-02-21T01:11:41;7.65;;;4.22;;
43771;SDS011;59066;54.782;32.024;2023-02-21T01:14:27;8.98;;;4.60;;
43771;SDS011;59066;54.782;32.024;2023-02-21T01:17:13;6.55;;;4.15;;
43771;SDS011;59066;54.782;32.024;2023-02-21T01:19:59;8.17;;;4.63;;
43771;SDS011;59066;54.782;32.024;2023-02-21T01:22:46;9.48;;;5.28;;
43771;SDS011;59066;54.782;32.024;2023-02-21T01:25:32;6.07;;;4.00;;
43771;SDS011;59066;54.782;32.024;2023-02-21T01:28:18;4.85;;;3.05;;
43771;SDS011;59066;54.782;32.024;2023-02-21T01:31:03;7.28;;;4.47;;
43771;SDS011;59066;54.782;32.024;2023-02-21T01:33:49;7.88;;;4.50;;
43771;SDS011;59066;54.782;32.024;2023-02-21T01:36:35;6.78;;;4.00;;
43771;SDS011;59066;54.782;32.024;2023-02-21T01:39:24;7.20;;;4.68;;
43771;SDS011;59066;54.782;32.024;2023-02-21T01:42:10;5.78;;;3.97;;
43771;SDS011;59066;54.782;32.024;2023-02-21T01:48:07;10.23;;;4.93;;
43771;SDS011;59066;54.782;32.024;2023-02-21T01:50:56;7.20;;;4.18;;
43771;SDS011;59066;54.782;32.024;2023-02-21T01:53:44;8.00;;;4.75;;
43771;SDS011;59066;54.782;32.024;2023-02-21T01:56:30;7.55;;;4.35;;
43771;SDS011;59066;54.782;32.024;2023-02-21T01:59:17;8.32;;;4.25;;
43771;SDS011;59066;54.782;32.024;2023-02-21T02:05:18;7.85;;;4.30;;
43771;SDS011;59066;54.782;32.024;2023-02-21T02:08:05;7.70;;;4.18;;
43771;SDS011;59066;54.782;32.024;2023-02-21T02:10:54;7.32;;;4.13;;
43771;SDS011;59066;54.782;32.024;2023-02-21T02:22:44;8.50;;;4.65;;
43771;SDS011;59066;54.782;32.024;2023-02-21T02:28:13;7.00;;;4.15;;
43771;SDS011;59066;54.782;32.024;2023-02-21T02:36:50;5.57;;;3.83;;
43771;SDS011;59066;54.782;32.024;2023-02-21T02:42:19;10.18;;;4.45;;
43771;SDS011;59066;54.782;32.024;2023-02-21T02:45:17;8.45;;;4.68;;
43771;SDS011;59066;54.782;32.024;2023-02-21T02:47:51;8.65;;;4.32;;
43771;SDS011;59066;54.782;32.024;2023-02-21T02:50:23;8.60;;;4.82;;
43771;SDS011;59066;54.782;32.024;2023-02-21T02:52:54;10.35;;;4.68;;
43771;SDS011;59066;54.782;32.024;2023-02-21T02:55:35;8.88;;;5.15;;
43771;SDS011;59066;54.782;32.024;2023-02-21T02:58:10;8.90;;;4.40;;
43771;SDS011;59066;54.782;32.024;2023-02-21T03:00:39;8.40;;;4.22;;
43771;SDS011;59066;54.782;32.024;2023-02-21T03:11:13;8.07;;;4.78;;
43771;SDS011;59066;54.782;32.024;2023-02-21T03:13:49;7.45;;;4.35;;
43771;SDS011;59066;54.782;32.024;2023-02-21T03:16:31;6.95;;;4.47;;
43771;SDS011;59066;54.782;32.024;2023-02-21T03:22:07;9.07;;;4.18;;
43771;SDS011;59066;54.782;32.024;2023-02-21T03:24:39;9.88;;;5.22;;
43771;SDS011;59066;54.782;32.024;2023-02-21T03:27:10;12.27;;;5.43;;
43771;SDS011;59066;54.782;32.024;2023-02-21T03:30:05;8.40;;;4.65;;
43771;SDS011;59066;54.782;32.024;2023-02-21T03:32:38;9.02;;;4.57;;
43771;SDS011;59066;54.782;32.024;2023-02-21T03:35:10;11.17;;;7.30;;
43771;SDS011;59066;54.782;32.024;2023-02-21T03:37:40;9.30;;;5.00;;
43771;SDS011;59066;54.782;32.024;2023-02-21T03:40:11;8.05;;;4.35;;
43771;SDS011;59066;54.782;32.024;2023-02-21T03:42:49;10.75;;;5.15;;
43771;SDS011;59066;54.782;32.024;2023-02-21T03:45:18;10.20;;;5.32;;
43771;SDS011;59066;54.782;32.024;2023-02-21T03:48:06;8.88;;;5.45;;
43771;SDS011;59066;54.782;32.024;2023-02-21T03:50:35;10.30;;;5.80;;
43771;SDS011;59066;54.782;32.024;2023-02-21T03:53:03;8.82;;;5.28;;
43771;SDS011;59066;54.782;32.024;2023-02-21T03:55:35;9.27;;;5.57;;
43771;SDS011;59066;54.782;32.024;2023-02-21T03:58:08;9.38;;;5.20;;
43771;SDS011;59066;54.782;32.024;2023-02-21T04:00:36;9.48;;;6.10;;
43771;SDS011;59066;54.782;32.024;2023-02-21T04:03:04;9.68;;;5.32;;
43771;SDS011;59066;54.782;32.024;2023-02-21T04:05:35;10.63;;;5.30;;
43771;SDS011;59066;54.782;32.024;2023-02-21T04:08:03;8.05;;;5.18;;
43771;SDS011;59066;54.782;32.024;2023-02-21T04:10:31;12.10;;;10.40;;
43771;SDS011;59066;54.782;32.024;2023-02-21T04:13:06;7.63;;;5.22;;
43771;SDS011;59066;54.782;32.024;2023-02-21T04:15:40;9.35;;;5.60;;
43771;SDS011;59066;54.782;32.024;2023-02-21T04:18:08;10.50;;;5.50;;
43771;SDS011;59066;54.782;32.024;2023-02-21T04:20:36;10.25;;;6.03;;
43771;SDS011;59066;54.782;32.024;2023-02-21T04:23:07;9.52;;;7.38;;
43771;SDS011;59066;54.782;32.024;2023-02-21T04:25:35;9.55;;;5.78;;
43771;SDS011;59066;54.782;32.024;2023-02-21T04:28:08;10.07;;;5.80;;
43771;SDS011;59066;54.782;32.024;2023-02-21T04:30:36;11.15;;;6.38;;
43771;SDS011;59066;54.782;32.024;2023-02-21T04:33:04;10.40;;;6.50;;
43771;SDS011;59066;54.782;32.024;2023-02-21T04:35:31;11.07;;;6.13;;
43771;SDS011;59066;54.782;32.024;2023-02-21T04:38:03;13.82;;;7.32;;
43771;SDS011;59066;54.782;32.024;2023-02-21T04:40:31;12.98;;;7.22;;
43771;SDS011;59066;54.782;32.024;2023-02-21T04:42:58;12.57;;;7.38;;
43771;SDS011;59066;54.782;32.024;2023-02-21T04:45:29;13.70;;;7.85;;
43771;SDS011;59066;54.782;32.024;2023-02-21T04:47:58;11.77;;;7.13;;
43771;SDS011;59066;54.782;32.024;2023-02-21T04:50:25;14.35;;;7.45;;
43771;SDS011;59066;54.782;32.024;2023-02-21T04:52:54;10.70;;;7.07;;
43771;SDS011;59066;54.782;32.024;2023-02-21T04:55:21;11.32;;;7.45;;
43771;SDS011;59066;54.782;32.024;2023-02-21T04:57:49;11.13;;;6.10;;
43771;SDS011;59066;54.782;32.024;2023-02-21T05:00:16;12.52;;;6.68;;
43771;SDS011;59066;54.782;32.024;2023-02-21T05:02:44;11.90;;;6.60;;
43771;SDS011;59066;54.782;32.024;2023-02-21T05:05:12;14.13;;;8.45;;
43771;SDS011;59066;54.782;32.024;2023-02-21T05:07:40;11.02;;;6.25;;
43771;SDS011;59066;54.782;32.024;2023-02-21T05:10:09;13.48;;;7.25;;
43771;SDS011;59066;54.782;32.024;2023-02-21T05:12:37;12.00;;;7.13;;
43771;SDS011;59066;54.782;32.024;2023-02-21T05:15:05;15.15;;;8.07;;
43771;SDS011;59066;54.782;32.024;2023-02-21T05:17:33;12.77;;;8.05;;
43771;SDS011;59066;54.782;32.024;2023-02-21T05:20:02;15.13;;;7.43;;
43771;SDS011;59066;54.782;32.024;2023-02-21T05:22:31;13.90;;;8.18;;
43771;SDS011;59066;54.782;32.024;2023-02-21T05:24:58;11.75;;;7.03;;
43771;SDS011;59066;54.782;32.024;2023-02-21T05:27:27;12.25;;;6.90;;
43771;SDS011;59066;54.782;32.024;2023-02-21T05:29:56;11.40;;;7.45;;
43771;SDS011;59066;54.782;32.024;2023-02-21T05:32:24;15.23;;;9.60;;
43771;SDS011;59066;54.782;32.024;2023-02-21T05:34:55;17.23;;;10.35;;
43771;SDS011;59066;54.782;32.024;2023-02-21T05:37:23;13.82;;;7.63;;
43771;SDS011;59066;54.782;32.024;2023-02-21T05:39:50;17.60;;;7.75;;
43771;SDS011;59066;54.782;32.024;2023-02-21T05:42:18;13.77;;;7.57;;
43771;SDS011;59066;54.782;32.024;2023-02-21T05:44:46;12.70;;;8.13;;
43771;SDS011;59066;54.782;32.024;2023-02-21T05:47:15;13.95;;;8.55;;
43771;SDS011;59066;54.782;32.024;2023-02-21T05:49:43;17.52;;;9.82;;
43771;SDS011;59066;54.782;32.024;2023-02-21T05:52:11;14.38;;;7.72;;
43771;SDS011;59066;54.782;32.024;2023-02-21T05:54:40;12.93;;;7.35;;
43771;SDS011;59066;54.782;32.024;2023-02-21T05:57:12;15.93;;;11.35;;
43771;SDS011;59066;54.782;32.024;2023-02-21T05:59:40;12.18;;;8.13;;
43771;SDS011;59066;54.782;32.024;2023-02-21T06:02:08;15.00;;;8.27;;
43771;SDS011;59066;54.782;32.024;2023-02-21T06:04:35;15.45;;;9.60;;
43771;SDS011;59066;54.782;32.024;2023-02-21T06:07:02;14.32;;;8.48;;
43771;SDS011;59066;54.782;32.024;2023-02-21T06:09:30;17.45;;;8.70;;
43771;SDS011;59066;54.782;32.024;2023-02-21T06:11:57;14.90;;;8.55;;
43771;SDS011;59066;54.782;32.024;2023-02-21T06:14:25;15.48;;;9.27;;
43771;SDS011;59066;54.782;32.024;2023-02-21T06:16:52;13.40;;;7.32;;
43771;SDS011;59066;54.782;32.024;2023-02-21T06:19:20;15.43;;;8.25;;
43771;SDS011;59066;54.782;32.024;2023-02-21T06:21:47;14.82;;;9.35;;
43771;SDS011;59066;54.782;32.024;2023-02-21T06:24:15;13.68;;;8.75;;
43771;SDS011;59066;54.782;32.024;2023-02-21T06:26:42;15.00;;;9.82;;
43771;SDS011;59066;54.782;32.024;2023-02-21T06:29:10;15.57;;;8.05;;
43771;SDS011;59066;54.782;32.024;2023-02-21T06:31:38;18.58;;;9.55;;
43771;SDS011;59066;54.782;32.024;2023-02-21T06:34:05;14.27;;;9.13;;
43771;SDS011;59066;54.782;32.024;2023-02-21T06:36:33;15.32;;;8.43;;
43771;SDS011;59066;54.782;32.024;2023-02-21T06:39:01;18.02;;;10.20;;
43771;SDS011;59066;54.782;32.024;2023-02-21T06:41:29;16.38;;;10.25;;
43771;SDS011;59066;54.782;32.024;2023-02-21T06:43:57;17.83;;;9.10;;
43771;SDS011;59066;54.782;32.024;2023-02-21T06:46:26;13.98;;;7.93;;
43771;SDS011;59066;54.782;32.024;2023-02-21T06:48:56;15.02;;;9.05;;
43771;SDS011;59066;54.782;32.024;2023-02-21T06:51:23;13.80;;;7.85;;
43771;SDS011;59066;54.782;32.024;2023-02-21T06:53:56;14.15;;;7.90;;
43771;SDS011;59066;54.782;32.024;2023-02-21T06:56:24;14.90;;;8.50;;
43771;SDS011;59066;54.782;32.024;2023-02-21T06:58:52;14.45;;;8.88;;
43771;SDS011;59066;54.782;32.024;2023-02-21T07:01:19;14.95;;;8.43;;
43771;SDS011;59066;54.782;32.024;2023-02-21T07:03:48;15.70;;;9.35;;
43771;SDS011;59066;54.782;32.024;2023-02-21T07:06:16;14.50;;;9.00;;
43771;SDS011;59066;54.782;32.024;2023-02-21T07:08:44;16.05;;;10.00;;
43771;SDS011;59066;54.782;32.024;2023-02-21T07:11:11;16.52;;;10.27;;
43771;SDS011;59066;54.782;32.024;2023-02-21T07:13:39;17.83;;;10.52;;
43771;SDS011;59066;54.782;32.024;2023-02-21T07:16:08;18.15;;;9.98;;
43771;SDS011;59066;54.782;32.024;2023-02-21T07:18:36;19.40;;;13.35;;
43771;SDS011;59066;54.782;32.024;2023-02-21T07:21:04;17.10;;;9.77;;
43771;SDS011;59066;54.782;32.024;2023-02-21T07:23:31;15.85;;;9.85;;
43771;SDS011;59066;54.782;32.024;2023-02-21T07:25:59;16.63;;;9.65;;
43771;SDS011;59066;54.782;32.024;2023-02-21T07:28:26;21.80;;;12.10;;
43771;SDS011;59066;54.782;32.024;2023-02-21T07:30:54;16.67;;;9.75;;
43771;SDS011;59066;54.782;32.024;2023-02-21T07:33:22;22.52;;;11.65;;
43771;SDS011;59066;54.782;32.024;2023-02-21T07:35:49;18.83;;;10.60;;
43771;SDS011;59066;54.782;32.024;2023-02-21T07:38:20;16.35;;;10.38;;
43771;SDS011;59066;54.782;32.024;2023-02-21T07:40:49;18.98;;;10.93;;
43771;SDS011;59066;54.782;32.024;2023-02-21T07:43:18;15.05;;;9.25;;
43771;SDS011;59066;54.782;32.024;2023-02-21T07:45:46;16.52;;;9.75;;
43771;SDS011;59066;54.782;32.024;2023-02-21T07:48:13;17.67;;;10.25;;
43771;SDS011;59066;54.782;32.024;2023-02-21T07:50:41;15.93;;;9.77;;
43771;SDS011;59066;54.782;32.024;2023-02-21T07:53:10;19.75;;;11.05;;
43771;SDS011;59066;54.782;32.024;2023-02-21T07:55:38;20.17;;;10.65;;
43771;SDS011;59066;54.782;32.024;2023-02-21T07:58:06;20.33;;;11.70;;
43771;SDS011;59066;54.782;32.024;2023-02-21T08:00:33;19.15;;;10.70;;
43771;SDS011;59066;54.782;32.024;2023-02-21T08:03:02;19.08;;;11.48;;
43771;SDS011;59066;54.782;32.024;2023-02-21T08:05:30;18.10;;;11.27;;
43771;SDS011;59066;54.782;32.024;2023-02-21T08:07:57;20.27;;;11.15;;
43771;SDS011;59066;54.782;32.024;2023-02-21T08:10:26;21.77;;;14.07;;
43771;SDS011;59066;54.782;32.024;2023-02-21T08:12:54;18.23;;;10.95;;
43771;SDS011;59066;54.782;32.024;2023-02-21T08:15:21;21.23;;;10.55;;
43771;SDS011;59066;54.782;32.024;2023-02-21T08:17:49;22.10;;;12.25;;
43771;SDS011;59066;54.782;32.024;2023-02-21T08:20:17;18.50;;;10.85;;
43771;SDS011;59066;54.782;32.024;2023-02-21T08:22:45;19.88;;;10.05;;
43771;SDS011;59066;54.782;32.024;2023-02-21T08:25:13;19.80;;;10.80;;
43771;SDS011;59066;54.782;32.024;2023-02-21T08:27:43;18.30;;;10.57;;
43771;SDS011;59066;54.782;32.024;2023-02-21T08:30:11;20.42;;;10.65;;
43771;SDS011;59066;54.782;32.024;2023-02-21T08:32:44;19.98;;;10.65;;
43771;SDS011;59066;54.782;32.024;2023-02-21T08:35:14;18.05;;;10.32;;
43771;SDS011;59066;54.782;32.024;2023-02-21T08:37:42;20.00;;;13.10;;
43771;SDS011;59066;54.782;32.024;2023-02-21T08:40:11;22.35;;;13.73;;
43771;SDS011;59066;54.782;32.024;2023-02-21T08:42:40;18.08;;;11.23;;
43771;SDS011;59066;54.782;32.024;2023-02-21T08:45:10;19.00;;;11.95;;
43771;SDS011;59066;54.782;32.024;2023-02-21T08:47:42;20.20;;;10.70;;
43771;SDS011;59066;54.782;32.024;2023-02-21T08:50:09;20.42;;;10.52;;
43771;SDS011;59066;54.782;32.024;2023-02-21T08:52:37;18.63;;;10.60;;
43771;SDS011;59066;54.782;32.024;2023-02-21T08:55:05;28.58;;;18.30;;
43771;SDS011;59066;54.782;32.024;2023-02-21T08:57:33;20.88;;;12.45;;
43771;SDS011;59066;54.782;32.024;2023-02-21T09:00:01;16.98;;;10.60;;
43771;SDS011;59066;54.782;32.024;2023-02-21T09:02:32;18.85;;;10.48;;
43771;SDS011;59066;54.782;32.024;2023-02-21T09:04:59;18.38;;;10.98;;
43771;SDS011;59066;54.782;32.024;2023-02-21T09:07:27;20.42;;;11.80;;
43771;SDS011;59066;54.782;32.024;2023-02-21T09:09:56;19.58;;;11.82;;
43771;SDS011;59066;54.782;32.024;2023-02-21T09:12:26;20.08;;;11.88;;
43771;SDS011;59066;54.782;32.024;2023-02-21T09:14:54;20.00;;;10.93;;
43771;SDS011;59066;54.782;32.024;2023-02-21T09:17:22;18.67;;;11.77;;
43771;SDS011;59066;54.782;32.024;2023-02-21T09:19:50;22.05;;;12.57;;
43771;SDS011;59066;54.782;32.024;2023-02-21T09:22:19;18.75;;;11.35;;
43771;SDS011;59066;54.782;32.024;2023-02-21T09:24:47;19.08;;;11.90;;
43771;SDS011;59066;54.782;32.024;2023-02-21T09:27:14;22.70;;;13.38;;
43771;SDS011;59066;54.782;32.024;2023-02-21T09:29:44;20.55;;;12.18;;
43771;SDS011;59066;54.782;32.024;2023-02-21T09:32:13;21.95;;;12.13;;
43771;SDS011;59066;54.782;32.024;2023-02-21T09:34:40;26.45;;;13.43;;
43771;SDS011;59066;54.782;32.024;2023-02-21T09:37:08;22.05;;;13.10;;
43771;SDS011;59066;54.782;32.024;2023-02-21T09:39:37;22.38;;;13.38;;
43771;SDS011;59066;54.782;32.024;2023-02-21T09:42:05;22.65;;;13.20;;
43771;SDS011;59066;54.782;32.024;2023-02-21T09:44:32;21.77;;;13.88;;
43771;SDS011;59066;54.782;32.024;2023-02-21T09:47:03;23.77;;;13.88;;
43771;SDS011;59066;54.782;32.024;2023-02-21T09:49:40;22.83;;;12.63;;
43771;SDS011;59066;54.782;32.024;2023-02-21T09:52:43;23.05;;;13.77;;
43771;SDS011;59066;54.782;32.024;2023-02-21T09:55:10;23.58;;;13.10;;
43771;SDS011;59066;54.782;32.024;2023-02-21T09:57:56;23.65;;;13.20;;
43771;SDS011;59066;54.782;32.024;2023-02-21T10:00:30;23.70;;;14.55;;
43771;SDS011;59066;54.782;32.024;2023-02-21T10:03:04;21.58;;;12.68;;
43771;SDS011;59066;54.782;32.024;2023-02-21T10:06:04;19.63;;;12.57;;
43771;SDS011;59066;54.782;32.024;2023-02-21T10:08:58;20.38;;;11.77;;
43771;SDS011;59066;54.782;32.024;2023-02-21T10:11:44;20.45;;;12.10;;
43771;SDS011;59066;54.782;32.024;2023-02-21T10:17:18;19.48;;;12.20;;
43771;SDS011;59066;54.782;32.024;2023-02-21T10:19:58;21.42;;;12.98;;
43771;SDS011;59066;54.782;32.024;2023-02-21T10:22:32;22.98;;;12.75;;
43771;SDS011;59066;54.782;32.024;2023-02-21T10:25:24;21.02;;;11.48;;
43771;SDS011;59066;54.782;32.024;2023-02-21T10:27:58;19.27;;;12.00;;
43771;SDS011;59066;54.782;32.024;2023-02-21T10:33:01;17.60;;;10.68;;
43771;SDS011;59066;54.782;32.024;2023-02-21T10:35:32;24.02;;;14.10;;
43771;SDS011;59066;54.782;32.024;2023-02-21T10:38:02;19.67;;;11.43;;
43771;SDS011;59066;54.782;32.024;2023-02-21T10:40:38;27.25;;;13.57;;
43771;SDS011;59066;54.782;32.024;2023-02-21T10:48:35;18.10;;;11.43;;
43771;SDS011;59066;54.782;32.024;2023-02-21T10:51:14;17.52;;;11.10;;
43771;SDS011;59066;54.782;32.024;2023-02-21T10:53:44;19.27;;;11.75;;
43771;SDS011;59066;54.782;32.024;2023-02-21T10:58:52;19.63;;;12.02;;
43771;SDS011;59066;54.782;32.024;2023-02-21T11:01:29;19.58;;;10.70;;
43771;SDS011;59066;54.782;32.024;2023-02-21T11:06:56;16.70;;;10.40;;
43771;SDS011;59066;54.782;32.024;2023-02-21T11:09:38;18.83;;;10.25;;
43771;SDS011;59066;54.782;32.024;2023-02-21T11:12:18;18.30;;;10.80;;
43771;SDS011;59066;54.782;32.024;2023-02-21T11:17:28;20.83;;;11.10;;
43771;SDS011;59066;54.782;32.024;2023-02-21T11:22:38;17.13;;;9.63;;
43771;SDS011;59066;54.782;32.024;2023-02-21T11:28:02;17.17;;;10.35;;
43771;SDS011;59066;54.782;32.024;2023-02-21T11:30:46;17.08;;;10.40;;
43771;SDS011;59066;54.782;32.024;2023-02-21T11:33:20;18.92;;;10.55;;
43771;SDS011;59066;54.782;32.024;2023-02-21T11:35:49;17.05;;;9.77;;
43771;SDS011;59066;54.782;32.024;2023-02-21T11:38:34;17.98;;;10.50;;
43771;SDS011;59066;54.782;32.024;2023-02-21T11:41:50;19.42;;;10.88;;
43771;SDS011;59066;54.782;32.024;2023-02-21T11:43:55;19.80;;;12.00;;
43771;SDS011;59066;54.782;32.024;2023-02-21T11:46:45;19.20;;;11.27;;
43771;SDS011;59066;54.782;32.024;2023-02-21T11:49:27;17.27;;;9.63;;
43771;SDS011;59066;54.782;32.024;2023-02-21T11:52:24;17.40;;;9.77;;
43771;SDS011;59066;54.782;32.024;2023-02-21T11:54:57;20.05;;;11.40;;
43771;SDS011;59066;54.782;32.024;2023-02-21T12:03:35;23.05;;;11.88;;
43771;SDS011;59066;54.782;32.024;2023-02-21T12:08:55;17.15;;;9.52;;
43771;SDS011;59066;54.782;32.024;2023-02-21T12:14:12;16.90;;;9.77;;
43771;SDS011;59066;54.782;32.024;2023-02-21T12:20:14;18.85;;;10.10;;
43771;SDS011;59066;54.782;32.024;2023-02-21T12:37:42;18.33;;;9.90;;
43771;SDS011;59066;54.782;32.024;2023-02-21T12:51:33;16.02;;;8.77;;
43771;SDS011;59066;54.782;32.024;2023-02-21T12:54:19;15.30;;;9.07;;
43771;SDS011;59066;54.782;32.024;2023-02-21T12:57:04;14.90;;;8.95;;
43771;SDS011;59066;54.782;32.024;2023-02-21T13:00:00;16.02;;;8.85;;
43771;SDS011;59066;54.782;32.024;2023-02-21T13:08:18;17.30;;;9.13;;
43771;SDS011;59066;54.782;32.024;2023-02-21T13:10:51;16.33;;;9.25;;
43771;SDS011;59066;54.782;32.024;2023-02-21T13:13:29;18.85;;;10.10;;
43771;SDS011;59066;54.782;32.024;2023-02-21T13:16:02;19.02;;;10.77;;
43771;SDS011;59066;54.782;32.024;2023-02-21T13:33:20;18.88;;;11.88;;
43771;SDS011;59066;54.782;32.024;2023-02-21T13:36:26;18.15;;;10.75;;
43771;SDS011;59066;54.782;32.024;2023-02-21T13:38:57;18.98;;;10.88;;
43771;SDS011;59066;54.782;32.024;2023-02-21T13:41:38;17.38;;;10.18;;
43771;SDS011;59066;54.782;32.024;2023-02-21T13:44:16;15.63;;;9.10;;
43771;SDS011;59066;54.782;32.024;2023-02-21T13:57:37;19.15;;;11.13;;
43771;SDS011;59066;54.782;32.024;2023-02-21T14:08:25;18.20;;;10.57;;
43771;SDS011;59066;54.782;32.024;2023-02-21T14:10:57;18.55;;;10.23;;
43771;SDS011;59066;54.782;32.024;2023-02-21T14:13:33;17.33;;;10.45;;
43771;SDS011;59066;54.782;32.024;2023-02-21T14:18:48;17.48;;;11.00;;
43771;SDS011;59066;54.782;32.024;2023-02-21T14:23:51;18.02;;;10.07;;
43771;SDS011;59066;54.782;32.024;2023-02-21T14:32:32;20.20;;;10.43;;
43771;SDS011;59066;54.782;32.024;2023-02-21T14:43:27;19.20;;;10.88;;
43771;SDS011;59066;54.782;32.024;2023-02-21T14:56:32;17.80;;;9.85;;
43771;SDS011;59066;54.782;32.024;2023-02-21T15:04:40;22.57;;;11.93;;
43771;SDS011;59066;54.782;32.024;2023-02-21T15:07:17;18.08;;;12.00;;
43771;SDS011;59066;54.782;32.024;2023-02-21T15:15:18;22.65;;;11.38;;
43771;SDS011;59066;54.782;32.024;2023-02-21T15:20:24;19.42;;;10.38;;
43771;SDS011;59066;54.782;32.024;2023-02-21T15:25:56;23.27;;;12.88;;
43771;SDS011;59066;54.782;32.024;2023-02-21T15:28:27;22.33;;;11.57;;
43771;SDS011;59066;54.782;32.024;2023-02-21T15:33:35;23.35;;;11.55;;
43771;SDS011;59066;54.782;32.024;2023-02-21T15:36:08;22.00;;;11.27;;
43771;SDS011;59066;54.782;32.024;2023-02-21T15:41:46;19.30;;;10.88;;
43771;SDS011;59066;54.782;32.024;2023-02-21T15:44:24;20.70;;;10.25;;
43771;SDS011;59066;54.782;32.024;2023-02-21T15:46:56;18.50;;;10.30;;
43771;SDS011;59066;54.782;32.024;2023-02-21T15:49:26;19.70;;;11.45;;
43771;SDS011;59066;54.782;32.024;2023-02-21T15:52:28;18.65;;;10.45;;
43771;SDS011;59066;54.782;32.024;2023-02-21T15:58:10;21.80;;;11.15;;
43771;SDS011;59066;54.782;32.024;2023-02-21T16:00:42;21.52;;;10.77;;
43771;SDS011;59066;54.782;32.024;2023-02-21T16:03:33;19.23;;;10.32;;
43771;SDS011;59066;54.782;32.024;2023-02-21T16:11:58;23.45;;;11.73;;
43771;SDS011;59066;54.782;32.024;2023-02-21T16:20:01;24.98;;;13.15;;
43771;SDS011;59066;54.782;32.024;2023-02-21T16:22:39;27.80;;;14.00;;
43771;SDS011;59066;54.782;32.024;2023-02-21T16:25:31;28.55;;;12.88;;
43771;SDS011;59066;54.782;32.024;2023-02-21T16:27:59;25.23;;;12.80;;
43771;SDS011;59066;54.782;32.024;2023-02-21T16:30:28;26.80;;;13.35;;
43771;SDS011;59066;54.782;32.024;2023-02-21T16:32:58;29.42;;;14.75;;
43771;SDS011;59066;54.782;32.024;2023-02-21T16:35:29;24.50;;;12.25;;
43771;SDS011;59066;54.782;32.024;2023-02-21T16:37:58;23.48;;;11.20;;
43771;SDS011;59066;54.782;32.024;2023-02-21T16:40:28;22.92;;;10.82;;
43771;SDS011;59066;54.782;32.024;2023-02-21T16:43:00;24.63;;;12.48;;
43771;SDS011;59066;54.782;32.024;2023-02-21T16:45:32;20.98;;;11.27;;
43771;SDS011;59066;54.782;32.024;2023-02-21T16:48:01;23.77;;;12.45;;
43771;SDS011;59066;54.782;32.024;2023-02-21T16:53:00;24.83;;;14.27;;
43771;SDS011;59066;54.782;32.024;2023-02-21T16:55:28;28.02;;;12.73;;
43771;SDS011;59066;54.782;32.024;2023-02-21T16:58:03;22.52;;;12.02;;
43771;SDS011;59066;54.782;32.024;2023-02-21T17:00:33;28.67;;;13.60;;
43771;SDS011;59066;54.782;32.024;2023-02-21T17:03:01;26.80;;;12.55;;
43771;SDS011;59066;54.782;32.024;2023-02-21T17:05:28;23.25;;;12.65;;
43771;SDS011;59066;54.782;32.024;2023-02-21T17:07:56;22.35;;;11.13;;
43771;SDS011;59066;54.782;32.024;2023-02-21T17:10:24;23.23;;;10.20;;
43771;SDS011;59066;54.782;32.024;2023-02-21T17:12:53;24.02;;;11.00;;
43771;SDS011;59066;54.782;32.024;2023-02-21T17:15:20;20.95;;;11.90;;
43771;SDS011;59066;54.782;32.024;2023-02-21T17:17:51;25.85;;;12.27;;
43771;SDS011;59066;54.782;32.024;2023-02-21T17:20:19;21.42;;;10.20;;
43771;SDS011;59066;54.782;32.024;2023-02-21T17:22:48;19.92;;;11.23;;
43771;SDS011;59066;54.782;32.024;2023-02-21T17:25:16;22.25;;;11.05;;
43771;SDS011;59066;54.782;32.024;2023-02-21T17:27:44;20.38;;;10.93;;
43771;SDS011;59066;54.782;32.024;2023-02-21T17:30:12;22.95;;;11.23;;
43771;SDS011;59066;54.782;32.024;2023-02-21T17:32:40;26.73;;;12.38;;
43771;SDS011;59066;54.782;32.024;2023-02-21T17:35:09;25.38;;;13.27;;
43771;SDS011;59066;54.782;32.024;2023-02-21T17:37:37;23.80;;;12.43;;
43771;SDS011;59066;54.782;32.024;2023-02-21T17:40:04;21.52;;;10.90;;
43771;SDS011;59066;54.782;32.024;2023-02-21T17:42:32;25.52;;;12.63;;
43771;SDS011;59066;54.782;32.024;2023-02-21T17:44:59;22.83;;;11.38;;
43771;SDS011;59066;54.782;32.024;2023-02-21T17:47:31;25.35;;;11.55;;
43771;SDS011;59066;54.782;32.024;2023-02-21T17:49:59;26.05;;;11.63;;
43771;SDS011;59066;54.782;32.024;2023-02-21T17:52:28;26.63;;;12.38;;
43771;SDS011;59066;54.782;32.024;2023-02-21T17:54:56;24.38;;;11.02;;
43771;SDS011;59066;54.782;32.024;2023-02-21T17:57:24;25.13;;;12.45;;
43771;SDS011;59066;54.782;32.024;2023-02-21T17:59:51;22.85;;;11.25;;
43771;SDS011;59066;54.782;32.024;2023-02-21T18:02:19;27.23;;;12.10;;
43771;SDS011;59066;54.782;32.024;2023-02-21T18:04:46;19.92;;;11.18;;
43771;SDS011;59066;54.782;32.024;2023-02-21T18:07:15;20.67;;;10.13;;
43771;SDS011;59066;54.782;32.024;2023-02-21T18:09:44;26.80;;;11.35;;
43771;SDS011;59066;54.782;32.024;2023-02-21T18:12:13;23.35;;;12.07;;
43771;SDS011;59066;54.782;32.024;2023-02-21T18:14:41;25.83;;;12.88;;
43771;SDS011;59066;54.782;32.024;2023-02-21T18:17:08;30.75;;;12.50;;
43771;SDS011;59066;54.782;32.024;2023-02-21T18:19:36;27.08;;;11.90;;
43771;SDS011;59066;54.782;32.024;2023-02-21T18:22:04;26.15;;;12.95;;
43771;SDS011;59066;54.782;32.024;2023-02-21T18:24:32;27.15;;;12.32;;
43771;SDS011;59066;54.782;32.024;2023-02-21T18:26:59;28.23;;;12.98;;
43771;SDS011;59066;54.782;32.024;2023-02-21T18:29:27;19.30;;;9.95;;